Time;durP1;ratioP1;P1;durP2;ratioP2;P2;SDS_P1;SDS_P2;PMS_P1;PMS_P2;Temp;Humidity;BMP_temperature;BMP_pressure;BME280_temperature;BME280_humidity;BME280_pressure;Samples;Min_cycle;Max_cycle;Signal;HPM_P1;HPM_P2
2023/07/24 00:00:24;;;;;;;;;;;;;;;17.37;100.00;100430.97;4954688;29;20393;-82
2023/07/24 00:02:50;;;;;;;;;;;;;;;17.38;100.00;100432.69;4956390;29;19973;-82
2023/07/24 00:05:15;;;;;;;;;;;;;;;17.45;100.00;100438.56;4956692;29;19918;-81
2023/07/24 00:07:40;;;;;;;;;;;;;;;17.45;100.00;100427.84;4954206;29;20385;-81
2023/07/24 00:10:06;;;;;;;;;;;;;;;17.44;100.00;100426.16;4955770;28;19970;-81
2023/07/24 00:12:32;;;;;;;;;;;;;;;17.44;100.00;100428.81;4938839;29;19973;-82
2023/07/24 00:14:57;;;;;;;;;;;;;;;17.44;100.00;100426.16;4956008;29;20274;-82
2023/07/24 00:17:22;;;;;;;;;;;;;;;17.46;100.00;100419.75;4954481;29;20393;-77
2023/07/24 00:19:48;;;;;;;;;;;;;;;17.46;100.00;100414.41;4954671;29;19934;-77
2023/07/24 00:22:14;;;;;;;;;;;;;;;17.47;100.00;100412.56;4956115;29;19922;-78
2023/07/24 00:24:39;;;;;;;;;;;;;;;17.46;100.00;100408.16;4956056;29;20297;-77
2023/07/24 00:27:05;;;;;;;;;;;;;;;17.45;100.00;100398.41;4938754;29;19922;-77
2023/07/24 00:29:30;;;;;;;;;;;;;;;17.44;100.00;100394.03;4954574;29;19998;-77
2023/07/24 00:31:55;;;;;;;;;;;;;;;17.44;100.00;100391.34;4956173;29;20021;-77
2023/07/24 00:34:21;;;;;;;;;;;;;;;17.44;100.00;100389.53;4953174;28;19925;-77
2023/07/24 00:36:46;;;;;;;;;;;;;;;17.46;100.00;100389.41;4938901;29;19941;-77
2023/07/24 00:39:14;;;;;;;;;;;;;;;17.42;100.00;100397.63;4955604;29;19953;-80
2023/07/24 00:41:39;;;;;;;;;;;;;;;17.43;100.00;100379.75;4954519;29;19982;-81
2023/07/24 00:44:04;;;;;;;;;;;;;;;17.45;100.00;100387.72;4935629;28;19923;-81
2023/07/24 00:46:32;;;;;;;;;;;;;;;17.45;100.00;100377.00;4954647;29;19926;-81
2023/07/24 00:48:58;;;;;;;;;;;;;;;17.44;100.00;100373.47;4955469;29;19918;-80
2023/07/24 00:51:24;;;;;;;;;;;;;;;17.45;100.00;100372.50;4956966;28;20044;-81
2023/07/24 00:53:49;;;;;;;;;;;;;;;17.48;100.00;100374.13;4938026;29;20018;-80
2023/07/24 00:56:15;;;;;;;;;;;;;;;17.48;100.00;100366.09;4954199;29;19933;-81
2023/07/24 00:58:40;;;;;;;;;;;;;;;17.48;100.00;100360.75;4909071;29;20243;-81
2023/07/24 01:01:05;;;;;;;;;;;;;;;17.47;100.00;100359.91;4937953;29;19926;-80
2023/07/24 01:03:32;;;;;;;;;;;;;;;17.45;100.00;100363.63;4953599;29;19948;-80
2023/07/24 01:05:59;;;;;;;;;;;;;;;17.42;100.00;100359.31;4953579;29;19922;-81
2023/07/24 01:08:24;;;;;;;;;;;;;;;17.38;100.00;100358.63;4952119;28;19919;-80
2023/07/24 01:10:49;;;;;;;;;;;;;;;17.36;100.00;100355.19;4906172;29;20005;-80
2023/07/24 01:13:19;;;;;;;;;;;;;;;17.34;100.00;100350.88;4969625;28;19929;-80
2023/07/24 01:15:48;;;;;;;;;;;;;;;17.33;100.00;100352.69;4951371;29;20092;-81
2023/07/24 01:18:15;;;;;;;;;;;;;;;17.33;100.00;100346.44;4944538;29;19923;-80
2023/07/24 01:20:43;;;;;;;;;;;;;;;17.33;100.00;100349.13;4937529;29;19918;-81
2023/07/24 01:23:20;;;;;;;;;;;;;;;17.35;100.00;100337.38;4953750;29;19918;-80
2023/07/24 01:25:56;;;;;;;;;;;;;;;17.35;100.00;100337.38;4953267;29;19929;-80
2023/07/24 01:28:21;;;;;;;;;;;;;;;17.36;100.00;100344.47;4945110;28;19923;-80
2023/07/24 01:30:47;;;;;;;;;;;;;;;17.34;100.00;100335.66;4919219;29;19974;-83
2023/07/24 01:33:14;;;;;;;;;;;;;;;17.33;100.00;100333.94;4936417;29;19923;-83
2023/07/24 01:35:40;;;;;;;;;;;;;;;17.32;100.00;100329.53;4937951;29;19921;-82
2023/07/24 01:38:06;;;;;;;;;;;;;;;17.37;100.00;100332.81;4903846;29;19919;-81
2023/07/24 01:40:31;;;;;;;;;;;;;;;17.36;100.00;100328.41;4937696;29;19929;-83
2023/07/24 01:42:59;;;;;;;;;;;;;;;17.36;100.00;100323.06;4952035;29;19978;-83
2023/07/24 01:45:24;;;;;;;;;;;;;;;17.36;100.00;100315.03;4946861;28;19930;-83
2023/07/24 01:47:50;;;;;;;;;;;;;;;17.35;100.00;100315.09;4934984;29;19918;-84
2023/07/24 01:50:15;;;;;;;;;;;;;;;17.32;100.00;100316.16;4934541;29;20303;-81
2023/07/24 01:52:41;;;;;;;;;;;;;;;17.31;100.00;100309.09;4934498;29;19969;-81
2023/07/24 01:55:07;;;;;;;;;;;;;;;17.28;100.00;100300.34;4918543;29;20339;-80
2023/07/24 01:57:32;;;;;;;;;;;;;;;17.29;100.00;100299.44;4942682;29;19927;-82
2023/07/24 01:59:58;;;;;;;;;;;;;;;17.30;100.00;100306.47;4913247;29;19926;-83
2023/07/24 02:02:23;;;;;;;;;;;;;;;17.26;100.00;100303.16;4899766;29;19923;-84
2023/07/24 02:04:48;;;;;;;;;;;;;;;17.26;100.00;100295.13;4927163;29;19919;-84
2023/07/24 02:07:14;;;;;;;;;;;;;;;17.24;100.00;100285.44;4932432;29;19931;-84
2023/07/24 02:09:39;;;;;;;;;;;;;;;17.24;100.00;100298.84;4903260;29;19923;-83
2023/07/24 02:12:07;;;;;;;;;;;;;;;17.28;100.00;100295.84;4946877;29;19994;-84
2023/07/24 02:14:33;;;;;;;;;;;;;;;17.27;100.00;100283.44;4934854;29;20292;-86
2023/07/24 02:16:58;;;;;;;;;;;;;;;17.29;100.00;100286.03;4929291;29;19950;-86
2023/07/24 02:19:29;;;;;;;;;;;;;;;17.29;100.00;100275.34;4934612;29;19919;-84
2023/07/24 02:22:01;;;;;;;;;;;;;;;17.29;100.00;100286.91;4902910;29;20064;-83
2023/07/24 02:24:27;;;;;;;;;;;;;;;17.30;100.00;100293.09;4916841;29;19926;-84
2023/07/24 02:26:52;;;;;;;;;;;;;;;17.30;100.00;100287.75;4926403;29;19922;-87
2023/07/24 02:29:18;;;;;;;;;;;;;;;17.28;100.00;100292.31;4968182;28;20373;-87
2023/07/24 02:31:44;;;;;;;;;;;;;;;17.26;100.00;100278.16;4938041;29;19919;-85
2023/07/24 02:34:09;;;;;;;;;;;;;;;17.25;100.00;100277.31;4937208;29;19922;-85
2023/07/24 02:36:35;;;;;;;;;;;;;;;17.24;100.00;100283.63;4938120;29;19922;-85
2023/07/24 02:39:01;;;;;;;;;;;;;;;17.25;100.00;100281.81;4948129;29;19929;-85
2023/07/24 02:41:26;;;;;;;;;;;;;;;17.24;100.00;100285.44;4908954;29;19922;-87
2023/07/24 02:43:52;;;;;;;;;;;;;;;17.24;100.00;100277.44;4937613;28;19918;-86
2023/07/24 02:46:18;;;;;;;;;;;;;;;17.24;100.00;100280.09;4920989;29;19929;-87
2023/07/24 02:48:43;;;;;;;;;;;;;;;17.25;100.00;100289.84;4950782;28;20013;-85
2023/07/24 02:51:09;;;;;;;;;;;;;;;17.19;100.00;100293.75;4926354;29;20344;-87
2023/07/24 02:53:34;;;;;;;;;;;;;;;17.16;100.00;100293.91;4942775;29;20368;-86
2023/07/24 02:56:01;;;;;;;;;;;;;;;17.16;100.00;100278.72;4934413;29;19965;-84
2023/07/24 02:58:26;;;;;;;;;;;;;;;17.13;100.00;100275.34;4941248;29;19926;-86
2023/07/24 03:00:52;;;;;;;;;;;;;;;17.13;100.00;100275.34;4953917;29;20045;-86
2023/07/24 03:03:17;;;;;;;;;;;;;;;17.12;100.00;100277.19;4941525;29;19925;-86
2023/07/24 03:05:43;;;;;;;;;;;;;;;17.05;100.00;100262.44;4951006;29;19931;-86
2023/07/24 03:08:08;;;;;;;;;;;;;;;17.05;100.00;100258.91;4921279;29;19923;-85
2023/07/24 03:10:33;;;;;;;;;;;;;;;17.02;100.00;100265.28;4957316;29;19945;-85
2023/07/24 03:12:59;;;;;;;;;;;;;;;17.01;100.00;100262.69;4957859;29;19926;-88
2023/07/24 03:15:25;;;;;;;;;;;;;;;16.98;100.00;100256.56;4952700;29;19970;-88
2023/07/24 03:17:50;;;;;;;;;;;;;;;16.97;100.00;100254.00;4926398;29;19922;-87
2023/07/24 03:20:17;;;;;;;;;;;;;;;16.92;100.00;100261.44;4941829;29;20009;-85
2023/07/24 03:22:43;;;;;;;;;;;;;;;16.86;100.00;100262.63;4931558;29;19946;-85
2023/07/24 03:25:08;;;;;;;;;;;;;;;16.82;100.00;100266.44;4941131;29;20546;-85
2023/07/24 03:27:36;;;;;;;;;;;;;;;16.79;100.00;100261.28;4913812;29;21652;-87
2023/07/24 03:30:03;;;;;;;;;;;;;;;16.76;100.00;100253.38;4924525;29;19919;-87
2023/07/24 03:32:28;;;;;;;;;;;;;;;16.72;100.00;100244.66;4944578;29;19926;-87
2023/07/24 03:34:55;;;;;;;;;;;;;;;16.68;100.00;100256.47;4938371;29;19965;-86
2023/07/24 03:37:20;;;;;;;;;;;;;;;16.66;100.00;100252.16;4922458;29;19957;-86
2023/07/24 03:39:46;;;;;;;;;;;;;;;16.63;100.00;100253.19;4921836;29;19926;-86
2023/07/24 03:42:14;;;;;;;;;;;;;;;16.63;100.00;100263.03;4935479;29;20430;-86
2023/07/24 03:44:40;;;;;;;;;;;;;;;16.63;100.00;100260.38;4924817;29;19953;-87
2023/07/24 03:47:06;;;;;;;;;;;;;;;16.63;100.00;100250.53;4927514;29;20290;-87
2023/07/24 03:49:32;;;;;;;;;;;;;;;16.63;100.00;100242.50;4909123;29;19926;-84
2023/07/24 03:51:57;;;;;;;;;;;;;;;16.64;100.00;100252.28;4905500;29;20370;-83
2023/07/24 03:54:23;;;;;;;;;;;;;;;16.63;100.00;100249.66;4905960;29;20420;-83
2023/07/24 03:56:48;;;;;;;;;;;;;;;16.62;100.00;100256.84;4905738;29;19930;-83
2023/07/24 03:59:14;;;;;;;;;;;;;;;16.62;100.00;100266.69;4928172;29;20025;-86
2023/07/24 04:01:39;;;;;;;;;;;;;;;16.61;100.00;100262.25;4914146;29;20302;-84
2023/07/24 04:04:05;;;;;;;;;;;;;;;16.60;100.00;100255.19;4936634;29;19922;-83
2023/07/24 04:06:30;;;;;;;;;;;;;;;16.61;100.00;100259.59;4920811;29;19923;-84
2023/07/24 04:08:55;;;;;;;;;;;;;;;16.60;100.00;100255.19;4936524;29;19923;-87
2023/07/24 04:11:21;;;;;;;;;;;;;;;16.60;100.00;100261.41;4940566;29;20397;-85
2023/07/24 04:13:46;;;;;;;;;;;;;;;16.59;100.00;100251.63;4912845;29;19934;-83
2023/07/24 04:16:12;;;;;;;;;;;;;;;16.57;100.00;100261.59;4939520;29;19922;-86
2023/07/24 04:18:37;;;;;;;;;;;;;;;16.53;100.00;100260.03;4928469;29;19982;-87
2023/07/24 04:21:02;;;;;;;;;;;;;;;16.50;100.00;100258.38;4951543;29;20427;-86
2023/07/24 04:23:28;;;;;;;;;;;;;;;16.48;100.00;100267.44;4949483;29;19915;-86
2023/07/24 04:26:00;;;;;;;;;;;;;;;16.45;100.00;100271.13;4929475;29;19947;-87
2023/07/24 04:28:25;;;;;;;;;;;;;;;16.43;100.00;100270.34;4925141;29;19923;-87
2023/07/24 04:30:50;;;;;;;;;;;;;;;16.42;100.00;100275.78;4904018;29;19923;-87
2023/07/24 04:33:16;;;;;;;;;;;;;;;16.37;100.00;100267.16;4939714;29;20434;-88
2023/07/24 04:35:41;;;;;;;;;;;;;;;16.39;100.00;100268.78;4937988;29;19954;-87
2023/07/24 04:38:07;;;;;;;;;;;;;;;16.36;100.00;100265.44;4918461;29;19930;-88
2023/07/24 04:40:33;;;;;;;;;;;;;;;16.32;100.00;100272.78;4904566;29;20065;-87
2023/07/24 04:42:58;;;;;;;;;;;;;;;16.28;100.00;100268.53;4911547;29;20393;-87
2023/07/24 04:45:23;;;;;;;;;;;;;;;16.27;100.00;100272.13;4926473;29;20445;-85
2023/07/24 04:47:49;;;;;;;;;;;;;;;16.27;100.00;100270.34;4913006;29;20018;-86
2023/07/24 04:50:14;;;;;;;;;;;;;;;16.24;100.00;100265.16;4904307;29;19953;-88
2023/07/24 04:52:39;;;;;;;;;;;;;;;16.24;100.00;100280.31;4949622;29;19982;-87
2023/07/24 04:55:05;;;;;;;;;;;;;;;16.19;100.00;100274.38;4951819;29;19922;-87
2023/07/24 04:57:30;;;;;;;;;;;;;;;16.17;100.00;100273.59;4889678;29;20092;-89
2023/07/24 04:59:56;;;;;;;;;;;;;;;16.17;100.00;100273.59;4906828;29;20068;-88
2023/07/24 05:02:22;;;;;;;;;;;;;;;16.13;100.00;100271.09;4935643;29;19927;-87
2023/07/24 05:04:47;;;;;;;;;;;;;;;16.11;100.00;100280.13;4905798;29;20346;-89
2023/07/24 05:07:13;;;;;;;;;;;;;;;16.10;100.00;100273.06;4890270;29;19934;-88
2023/07/24 05:09:38;;;;;;;;;;;;;;;16.04;100.00;100270.72;4938829;28;19923;-88
2023/07/24 05:12:04;;;;;;;;;;;;;;;16.04;100.00;100270.72;4921709;29;19918;-88
2023/07/24 05:14:32;;;;;;;;;;;;;;;16.02;100.00;100270.81;4941520;29;19930;-89
2023/07/24 05:16:57;;;;;;;;;;;;;;;15.99;100.00;100267.44;4938520;29;20263;-88
2023/07/24 05:19:22;;;;;;;;;;;;;;;16.00;100.00;100278.03;4938116;29;19982;-88
2023/07/24 05:21:48;;;;;;;;;;;;;;;16.01;100.00;100290.44;4903656;29;19962;-88
2023/07/24 05:24:13;;;;;;;;;;;;;;;16.01;100.00;100284.25;4930902;29;19918;-87
2023/07/24 05:26:39;;;;;;;;;;;;;;;16.00;100.00;100282.50;4900428;29;19927;-87
2023/07/24 05:29:04;;;;;;;;;;;;;;;15.99;100.00;100292.31;4929928;29;19961;-86
2023/07/24 05:31:29;;;;;;;;;;;;;;;15.97;100.00;100293.34;4903380;29;19927;-87
2023/07/24 05:33:55;;;;;;;;;;;;;;;15.97;100.00;100290.69;4933658;29;19919;-86
2023/07/24 05:36:20;;;;;;;;;;;;;;;15.97;100.00;100298.69;4935861;29;20390;-87
2023/07/24 05:38:45;;;;;;;;;;;;;;;15.99;100.00;100297.66;4918765;29;19929;-86
2023/07/24 05:41:11;;;;;;;;;;;;;;;15.99;100.00;100295.00;4910510;29;20301;-86
2023/07/24 05:43:36;;;;;;;;;;;;;;;16.00;100.00;100295.84;4923972;29;19919;-87
2023/07/24 05:46:02;;;;;;;;;;;;;;;15.99;100.00;100297.66;4899277;29;19926;-86
2023/07/24 05:48:27;;;;;;;;;;;;;;;15.99;100.00;100291.47;4919360;29;19923;-86
2023/07/24 05:50:53;;;;;;;;;;;;;;;15.98;100.00;100292.41;4922998;29;19929;-87
2023/07/24 05:53:18;;;;;;;;;;;;;;;16.03;100.00;100293.03;4929433;29;20357;-86
2023/07/24 05:55:43;;;;;;;;;;;;;;;16.04;100.00;100292.94;4931282;29;20014;-87
2023/07/24 05:58:09;;;;;;;;;;;;;;;16.06;100.00;100300.88;4901990;29;20224;-87
2023/07/24 06:00:36;;;;;;;;;;;;;;;16.09;100.00;100298.03;4932390;29;19919;-85
2023/07/24 06:03:01;;;;;;;;;;;;;;;16.09;100.00;100306.06;4935593;29;19977;-86
2023/07/24 06:05:27;;;;;;;;;;;;;;;16.09;100.00;100311.38;4914409;29;20363;-86
2023/07/24 06:07:52;;;;;;;;;;;;;;;16.11;100.00;100307.69;4931998;29;20014;-85
2023/07/24 06:10:17;;;;;;;;;;;;;;;16.11;100.00;100304.16;4914863;29;19923;-85
2023/07/24 06:12:43;;;;;;;;;;;;;;;16.12;100.00;100305.88;4933149;29;20009;-84
2023/07/24 06:15:08;;;;;;;;;;;;;;;16.17;100.00;100306.53;4929352;29;19930;-85
2023/07/24 06:17:34;;;;;;;;;;;;;;;16.24;100.00;100307.03;4918865;29;19930;-87
2023/07/24 06:19:59;;;;;;;;;;;;;;;16.32;100.00;100308.38;4901155;29;19922;-86
2023/07/24 06:22:25;;;;;;;;;;;;;;;16.48;100.00;100305.69;4921514;29;20377;-88
2023/07/24 06:24:50;;;;;;;;;;;;;;;16.58;100.00;100315.91;4931591;29;19919;-88
2023/07/24 06:27:16;;;;;;;;;;;;;;;16.57;100.00;100312.38;4932037;29;19922;-86
2023/07/24 06:29:41;;;;;;;;;;;;;;;16.57;100.00;100317.72;4937039;29;19918;-87
2023/07/24 06:32:07;;;;;;;;;;;;;;;16.55;100.00;100309.75;4935365;28;19923;-86
2023/07/24 06:34:32;;;;;;;;;;;;;;;16.56;100.00;100316.81;4952187;29;20378;-86
2023/07/24 06:36:58;;;;;;;;;;;;;;;16.61;100.00;100318.41;4939174;29;20385;-85
2023/07/24 06:39:23;;;;;;;;;;;;;;;16.66;100.00;100314.50;4955159;29;20361;-86
2023/07/24 06:41:48;;;;;;;;;;;;;;;16.72;100.00;100311.50;4958507;29;20277;-85
2023/07/24 06:44:14;;;;;;;;;;;;;;;16.78;100.00;100313.00;4937687;29;19918;-87
2023/07/24 06:46:40;;;;;;;;;;;;;;;16.83;100.00;100321.63;4953586;29;20405;-85
2023/07/24 06:49:05;;;;;;;;;;;;;;;16.77;100.00;100320.13;4924707;29;19935;-86
2023/07/24 06:51:30;;;;;;;;;;;;;;;16.76;100.00;100317.53;4947450;29;19923;-85
2023/07/24 06:53:56;;;;;;;;;;;;;;;16.76;100.00;100315.75;4924405;29;19958;-86
2023/07/24 06:56:21;;;;;;;;;;;;;;;16.80;100.00;100307.59;4930467;29;19923;-85
2023/07/24 06:58:46;;;;;;;;;;;;;;;16.85;100.00;100310.84;4940303;28;20291;-86
2023/07/24 07:01:12;;;;;;;;;;;;;;;16.93;100.00;100306.78;4924524;29;19922;-86
2023/07/24 07:03:37;;;;;;;;;;;;;;;17.02;100.00;100308.09;4956903;29;19963;-87
2023/07/24 07:06:03;;;;;;;;;;;;;;;16.94;100.00;100318.38;4954146;29;19927;-85
2023/07/24 07:08:30;;;;;;;;;;;;;;;16.91;100.00;100308.72;4953013;28;19918;-85
2023/07/24 07:10:59;;;;;;;;;;;;;;;16.91;100.00;100305.16;4956900;29;20012;-85
2023/07/24 07:13:24;;;;;;;;;;;;;;;16.88;100.00;100316.03;4938132;29;20017;-86
2023/07/24 07:15:50;;;;;;;;;;;;;;;16.85;100.00;100316.22;4938240;29;19960;-85
2023/07/24 07:18:15;;;;;;;;;;;;;;;16.88;100.00;100321.38;4951620;28;19961;-85
2023/07/24 07:20:50;;;;;;;;;;;;;;;16.88;100.00;100305.31;4957728;29;19945;-86
2023/07/24 07:23:16;;;;;;;;;;;;;;;16.88;100.00;100314.22;4957988;28;20394;-85
2023/07/24 07:25:45;;;;;;;;;;;;;;;16.81;100.00;100318.16;4940477;29;19953;-86
2023/07/24 07:28:14;;;;;;;;;;;;;;;16.81;100.00;100314.63;4954751;29;19926;-83
2023/07/24 07:30:39;;;;;;;;;;;;;;;16.80;100.00;100307.59;4931924;29;19922;-83
2023/07/24 07:33:05;;;;;;;;;;;;;;;16.81;100.00;100314.63;4924801;29;19930;-88
2023/07/24 07:35:31;;;;;;;;;;;;;;;16.81;100.00;100311.97;4940442;29;19922;-87
2023/07/24 07:37:57;;;;;;;;;;;;;;;16.74;100.00;100306.06;4924747;29;20401;-89
2023/07/24 07:40:23;;;;;;;;;;;;;;;16.76;100.00;100305.06;4958110;29;20029;-90
2023/07/24 07:42:48;;;;;;;;;;;;;;;16.77;100.00;100314.78;4928027;28;19923;-87
2023/07/24 07:45:14;;;;;;;;;;;;;;;16.83;100.00;100308.25;4927557;29;19929;-90
2023/07/24 07:47:39;;;;;;;;;;;;;;;16.77;100.00;100298.75;4927994;29;19926;-90
2023/07/24 07:50:05;;;;;;;;;;;;;;;16.80;100.00;100304.91;4956799;29;20061;-87
2023/07/24 07:52:30;;;;;;;;;;;;;;;16.81;100.00;100302.13;4941065;29;19918;-87
2023/07/24 07:54:56;;;;;;;;;;;;;;;16.88;100.00;100305.31;4927016;29;19919;-92
2023/07/24 07:57:21;;;;;;;;;;;;;;;16.91;100.00;100306.03;4924767;29;19926;-88
2023/07/24 07:59:47;;;;;;;;;;;;;;;16.98;100.00;100303.84;4923853;29;19926;-89
2023/07/24 08:02:12;;;;;;;;;;;;;;;17.00;100.00;100304.63;4938305;29;20018;-88
2023/07/24 08:04:38;;;;;;;;;;;;;;;17.05;100.00;100307.03;4941457;29;19991;-88
2023/07/24 08:07:03;;;;;;;;;;;;;;;17.09;100.00;100308.59;4911113;29;19942;-87
2023/07/24 08:09:29;;;;;;;;;;;;;;;17.12;100.00;100316.44;4920057;29;19926;-86
2023/07/24 08:11:55;;;;;;;;;;;;;;;17.09;100.00;100313.97;4936966;29;19914;-87
2023/07/24 08:14:20;;;;;;;;;;;;;;;17.06;100.00;100311.44;4928527;29;20290;-87
2023/07/24 08:16:49;;;;;;;;;;;;;;;17.04;100.00;100316.03;4939992;29;20400;-87
2023/07/24 08:19:14;;;;;;;;;;;;;;;17.07;100.00;100323.88;4938470;29;19919;-85
2023/07/24 08:21:40;;;;;;;;;;;;;;;17.09;100.00;100322.84;4954862;29;19925;-85
2023/07/24 08:24:05;;;;;;;;;;;;;;;17.14;100.00;100322.56;4955997;29;20329;-85
2023/07/24 08:26:31;;;;;;;;;;;;;;;17.26;100.00;100313.84;4951302;28;19926;-84
2023/07/24 08:28:56;;;;;;;;;;;;;;;17.41;100.00;100309.41;4936576;29;19922;-87
2023/07/24 08:31:22;;;;;;;;;;;;;;;17.50;100.00;100311.53;4955927;29;19927;-86
2023/07/24 08:33:47;;;;;;;;;;;;;;;17.56;100.00;100308.50;4936077;29;20267;-84
2023/07/24 08:36:12;;;;;;;;;;;;;;;17.63;100.00;100312.53;4938804;29;19927;-84
2023/07/24 08:38:38;;;;;;;;;;;;;;;17.69;100.00;100308.63;4955801;29;19918;-87
2023/07/24 08:41:05;;;;;;;;;;;;;;;17.73;100.00;100310.19;4955758;29;19922;-88
2023/07/24 08:43:31;;;;;;;;;;;;;;;17.76;100.00;100304.63;4931066;29;20005;-85
2023/07/24 08:45:57;;;;;;;;;;;;;;;17.71;100.00;100295.16;4946087;29;19926;-85
2023/07/24 08:48:23;;;;;;;;;;;;;;;17.67;100.00;100304.31;4931200;29;19915;-84
2023/07/24 08:50:52;;;;;;;;;;;;;;;17.66;100.00;100306.13;4929901;29;19992;-84
2023/07/24 08:53:24;;;;;;;;;;;;;;;17.63;100.00;100315.22;4922722;29;19925;-85
2023/07/24 08:55:52;;;;;;;;;;;;;;;17.58;100.00;100314.63;4947472;29;20009;-88
2023/07/24 08:58:17;;;;;;;;;;;;;;;17.53;100.00;100308.69;4939703;29;19919;-87
2023/07/24 09:00:43;;;;;;;;;;;;;;;17.50;100.00;100303.50;4949667;28;19933;-85
2023/07/24 09:03:08;;;;;;;;;;;;;;;17.41;100.00;100298.69;4956757;29;19969;-85
2023/07/24 09:05:34;;;;;;;;;;;;;;;17.42;100.00;100298.59;4953643;29;19922;-87
2023/07/24 09:07:59;;;;;;;;;;;;;;;17.48;100.00;100286.69;4917607;29;19972;-85
2023/07/24 09:10:25;;;;;;;;;;;;;;;17.48;100.00;100288.47;4950035;28;20029;-87
2023/07/24 09:12:51;;;;;;;;;;;;;;;17.55;100.00;100292.50;4937953;29;19918;-88
2023/07/24 09:15:16;;;;;;;;;;;;;;;17.61;100.00;100274.28;4928719;29;19941;-88
2023/07/24 09:17:51;;;;;;;;;;;;;;;17.72;100.00;100270.94;4932586;29;19919;-86
2023/07/24 09:20:17;;;;;;;;;;;;;;;17.80;100.00;100265.16;4953722;29;19926;-86
2023/07/24 09:22:50;;;;;;;;;;;;;;;17.79;100.00;100263.41;4933338;29;19918;-86
2023/07/24 09:25:15;;;;;;;;;;;;;;;17.76;100.00;100261.78;4953223;29;20001;-87
2023/07/24 09:27:40;;;;;;;;;;;;;;;17.70;100.00;100259.47;4921789;29;19926;-85
2023/07/24 09:30:12;;;;;;;;;;;;;;;17.69;100.00;100255.06;4937824;29;19941;-85
2023/07/24 09:32:38;;;;;;;;;;;;;;;17.67;100.00;100262.31;4954995;28;19999;-85
2023/07/24 09:35:03;;;;;;;;;;;;;;;17.65;100.00;100261.56;4923680;29;19922;-85
2023/07/24 09:37:30;;;;;;;;;;;;;;;17.67;100.00;100261.47;4955150;29;20394;-85
2023/07/24 09:39:56;;;;;;;;;;;;;;;17.67;100.00;100243.59;4936971;29;19972;-85
2023/07/24 09:42:35;;;;;;;;;;;;;;;17.66;100.00;100241.03;4921346;29;20374;-86
2023/07/24 09:45:04;;;;;;;;;;;;;;;17.64;100.00;100243.78;4954742;28;19973;-85
2023/07/24 09:47:33;;;;;;;;;;;;;;;17.66;100.00;100233.00;4948169;28;19930;-85
2023/07/24 09:49:59;;;;;;;;;;;;;;;17.70;100.00;100223.78;4942772;29;19968;-86
2023/07/24 09:52:27;;;;;;;;;;;;;;;17.77;100.00;100230.50;4940996;29;19918;-86
2023/07/24 09:54:58;;;;;;;;;;;;;;;17.86;100.00;100227.28;4925720;29;19973;-87
2023/07/24 10:05:04;;;;;;;;;;;;;;;;;;;;;
2023/07/24 10:11:51;;;;;;;;;;;;;;;17.81;100.00;100210.66;4895765;29;19943;-84
2023/07/24 10:14:29;;;;;;;;;;;;;;;17.78;100.00;100203.63;4865094;29;20010;-84
2023/07/24 10:16:56;;;;;;;;;;;;;;;17.71;100.00;100212.16;4939055;29;20365;-83
2023/07/24 10:19:35;;;;;;;;;;;;;;;17.77;100.00;100209.94;4924757;29;19926;-85
2023/07/24 10:22:02;;;;;;;;;;;;;;;17.82;100.00;100220.38;4937431;29;20337;-85
2023/07/24 10:24:32;;;;;;;;;;;;;;;17.83;100.00;100228.34;4936991;29;20346;-84
2023/07/24 10:26:58;;;;;;;;;;;;;;;17.82;100.00;100228.44;4929969;29;19968;-87
2023/07/24 10:29:24;;;;;;;;;;;;;;;17.77;100.00;100228.66;4935159;29;19966;-85
2023/07/24 10:31:56;;;;;;;;;;;;;;;17.74;100.00;100234.22;4918274;29;19941;-84
2023/07/24 10:34:25;;;;;;;;;;;;;;;17.74;100.00;100244.09;4917612;29;19923;-85
2023/07/24 10:37:01;;;;;;;;;;;;;;;17.71;100.00;100234.41;4904048;29;19926;-84
2023/07/24 10:39:37;;;;;;;;;;;;;;;17.75;100.00;100237.75;4915977;29;19918;-85
2023/07/24 10:42:09;;;;;;;;;;;;;;;17.77;100.00;100236.72;4937254;29;19985;-87
2023/07/24 10:44:42;;;;;;;;;;;;;;;17.79;100.00;100239.31;4921109;29;20014;-85
2023/07/24 10:47:35;;;;;;;;;;;;;;;17.83;100.00;100227.50;4917722;29;19927;-84
2023/07/24 10:53:44;;;;;;;;;;;;;;;18.04;100.00;100244.03;4934314;29;19929;-84
2023/07/24 10:56:17;;;;;;;;;;;;;;;18.14;100.00;100260.41;4918364;29;19967;-86
2023/07/24 10:58:46;;;;;;;;;;;;;;;18.21;100.00;100262.59;4903000;29;19982;-85
2023/07/24 11:01:14;;;;;;;;;;;;;;;18.27;100.00;100258.66;4911843;29;19970;-85
2023/07/24 11:03:56;;;;;;;;;;;;;;;18.33;100.00;100260.97;4888855;29;19954;-84
2023/07/24 11:06:50;;;;;;;;;;;;;;;18.30;100.00;100265.63;4906272;29;19923;-83
2023/07/24 11:09:37;;;;;;;;;;;;;;;18.29;100.00;100259.44;4920717;29;20013;-82
2023/07/24 11:12:09;;;;;;;;;;;;;;;18.32;100.00;100255.69;4892761;29;19919;-83
2023/07/24 11:14:50;;;;;;;;;;;;;;;18.32;100.00;100258.38;4922505;29;19923;-83
2023/07/24 11:17:18;;;;;;;;;;;;;;;18.41;100.00;100261.31;4921216;29;19974;-82
2023/07/24 11:19:44;;;;;;;;;;;;;;;18.55;100.00;100251.56;4918788;29;19930;-83
2023/07/24 11:22:09;;;;;;;;;;;;;;;18.73;100.00;100249.50;4907207;29;19937;-83
2023/07/24 11:24:42;;;;;;;;;;;;;;;18.89;100.00;100260.97;4905403;29;20437;-84
2023/07/24 11:27:12;;;;;;;;;;;;;;;18.93;99.16;100256.28;4939089;29;19977;-84
2023/07/24 11:29:38;;;;;;;;;;;;;;;18.97;99.08;100252.44;4956933;29;20039;-83
2023/07/24 11:32:03;;;;;;;;;;;;;;;19.05;98.80;100245.56;4938921;29;20404;-85
2023/07/24 11:34:29;;;;;;;;;;;;;;;19.22;99.44;100255.19;4920026;29;20366;-84
2023/07/24 11:36:55;;;;;;;;;;;;;;;19.58;97.03;100252.78;4939002;29;19922;-85
2023/07/24 11:39:59;;;;;;;;;;;;;;;19.72;97.31;100256.25;4954994;28;19923;-83
2023/07/24 11:42:25;;;;;;;;;;;;;;;19.80;96.26;100250.34;4887804;29;19975;-84
2023/07/24 11:44:50;;;;;;;;;;;;;;;20.00;94.18;100253.47;4929428;29;19945;-84
2023/07/24 11:48:30;;;;;;;;;;;;;;;20.07;92.17;100250.25;4944749;29;19927;-84
2023/07/24 11:50:41;;;;;;;;;;;;;;;20.37;95.33;100255.25;4928101;29;19929;-86
2023/07/24 11:53:06;;;;;;;;;;;;;;;20.50;88.99;100252.56;4957450;29;19968;-83
2023/07/24 11:55:32;;;;;;;;;;;;;;;20.42;88.44;100254.91;4953794;29;20001;-77
2023/07/24 11:57:58;;;;;;;;;;;;;;;20.27;85.96;100239.91;4957064;29;19929;-78
2023/07/24 12:00:23;;;;;;;;;;;;;;;20.11;84.86;100238.31;4957945;29;19926;-79
2023/07/24 12:02:49;;;;;;;;;;;;;;;20.12;86.15;100225.72;4957134;29;19977;-79
2023/07/24 12:05:15;;;;;;;;;;;;;;;20.16;83.64;100230.78;4956616;29;19977;-80
2023/07/24 12:07:42;;;;;;;;;;;;;;;20.22;85.71;100240.22;4954632;28;19929;-79
2023/07/24 12:10:07;;;;;;;;;;;;;;;20.26;85.93;100235.50;4956824;29;19918;-79
2023/07/24 12:12:46;;;;;;;;;;;;;;;20.38;86.31;100224.72;4956342;29;20278;-79
2023/07/24 12:15:12;;;;;;;;;;;;;;;20.50;84.59;100222.09;4955699;28;19942;-79
2023/07/24 12:17:38;;;;;;;;;;;;;;;20.70;84.11;100223.38;4950622;29;19934;-79
2023/07/24 12:20:05;;;;;;;;;;;;;;;20.90;80.60;100222.75;4942741;29;19942;-78
2023/07/24 12:22:31;;;;;;;;;;;;;;;20.91;82.15;100224.44;4939157;29;19919;-77
2023/07/24 12:24:57;;;;;;;;;;;;;;;20.94;77.85;100218.81;4922954;29;19929;-78
2023/07/24 12:27:22;;;;;;;;;;;;;;;21.15;80.80;100213.66;4928205;29;19978;-79
2023/07/24 12:29:47;;;;;;;;;;;;;;;21.30;81.61;100214.34;4936391;29;20022;-78
2023/07/24 12:32:13;;;;;;;;;;;;;;;21.24;80.64;100233.63;4935877;29;19930;-78
2023/07/24 12:34:38;;;;;;;;;;;;;;;21.01;79.91;100227.31;4935372;29;20017;-78
2023/07/24 12:37:04;;;;;;;;;;;;;;;20.77;78.29;100221.91;4937392;29;19969;-80
2023/07/24 12:39:29;;;;;;;;;;;;;;;20.58;80.49;100219.75;4935282;28;19926;-80
2023/07/24 12:41:54;;;;;;;;;;;;;;;20.47;82.40;100220.47;4935823;29;19969;-79